Time;durP1;ratioP1;P1;durP2;ratioP2;P2;SDS_P1;SDS_P2;PMS_P1;PMS_P2;Temp;Humidity;BMP_temperature;BMP_pressure;BME280_temperature;BME280_humidity;BME280_pressure;Samples;Min_cycle;Max_cycle;Signal;HPM_P1;HPM_P2
2022/04/12 00:01:05;;;;;;;3.92;2.60;;;;;;;;;;5042925;28;20190;-82
2022/04/12 00:03:31;;;;;;;3.85;2.50;;;;;;;;;;5057397;28;20280;-82
2022/04/12 00:05:57;;;;;;;2.60;2.40;;;;;;;;;;5057545;28;20186;-82
2022/04/12 00:08:23;;;;;;;3.15;2.60;;;;;;;;;;5041887;28;20636;-81
2022/04/12 00:10:50;;;;;;;2.88;2.20;;;;;;;;;;5045216;28;20272;-82
2022/04/12 00:13:18;;;;;;;3.15;1.98;;;;;;;;;;5045517;28;20177;-82
2022/04/12 00:15:44;;;;;;;3.67;1.88;;;;;;;;;;5057936;28;20232;-82
2022/04/12 00:20:55;;;;;;;4.45;2.08;;;;;;;;;;5042142;28;20224;-82
2022/04/12 00:23:21;;;;;;;2.80;2.23;;;;;;;;;;5057970;28;20174;-82
2022/04/12 00:25:48;;;;;;;2.97;2.28;;;;;;;;;;5044223;28;20435;-82
2022/04/12 00:28:14;;;;;;;6.68;3.00;;;;;;;;;;5044097;28;20199;-83
2022/04/12 00:30:41;;;;;;;2.65;2.05;;;;;;;;;;5057772;28;20182;-82
2022/04/12 00:33:07;;;;;;;3.85;2.40;;;;;;;;;;5057379;28;20245;-82
2022/04/12 00:35:33;;;;;;;4.40;2.13;;;;;;;;;;5040366;28;20206;-82
2022/04/12 00:37:59;;;;;;;4.38;2.47;;;;;;;;;;5059475;28;20201;-82
2022/04/12 00:40:25;;;;;;;4.75;1.83;;;;;;;;;;5060983;28;20182;-83
2022/04/12 00:42:52;;;;;;;3.83;2.30;;;;;;;;;;5057787;28;20182;-82
2022/04/12 00:45:18;;;;;;;3.85;2.67;;;;;;;;;;5056762;28;20201;-82
2022/04/12 00:47:45;;;;;;;2.58;2.30;;;;;;;;;;5041837;28;20259;-82
2022/04/12 00:50:12;;;;;;;2.58;2.22;;;;;;;;;;5046877;28;20212;-83
2022/04/12 00:52:48;;;;;;;2.65;2.20;;;;;;;;;;5046703;28;20258;-81
2022/04/12 00:55:14;;;;;;;4.03;2.60;;;;;;;;;;5060113;28;20265;-82
2022/04/12 00:57:41;;;;;;;3.05;1.90;;;;;;;;;;5042136;28;20190;-81
2022/04/12 01:00:08;;;;;;;3.78;2.60;;;;;;;;;;5057620;28;20356;-82
2022/04/12 01:02:34;;;;;;;4.82;2.10;;;;;;;;;;5041780;28;20174;-81
2022/04/12 01:05:01;;;;;;;2.60;2.20;;;;;;;;;;5057956;28;20181;-82
2022/04/12 01:07:27;;;;;;;2.92;2.00;;;;;;;;;;5046064;28;20258;-82
2022/04/12 01:09:54;;;;;;;3.30;2.35;;;;;;;;;;5040910;28;20273;-82
2022/04/12 01:12:21;;;;;;;4.63;1.92;;;;;;;;;;5042061;28;20181;-82
2022/04/12 01:14:47;;;;;;;2.58;2.17;;;;;;;;;;5040240;28;20210;-82
2022/04/12 01:17:15;;;;;;;2.88;2.08;;;;;;;;;;5024918;28;20198;-82
2022/04/12 01:19:41;;;;;;;3.00;2.20;;;;;;;;;;5052434;28;20170;-82
2022/04/12 01:22:11;;;;;;;3.00;1.90;;;;;;;;;;5042422;28;20241;-82
2022/04/12 01:24:37;;;;;;;3.78;1.92;;;;;;;;;;5041249;28;20190;-82
2022/04/12 01:27:03;;;;;;;4.13;2.10;;;;;;;;;;5041043;28;20663;-82
2022/04/12 01:29:33;;;;;;;3.33;1.77;;;;;;;;;;5040460;28;20252;-82
2022/04/12 01:32:00;;;;;;;2.28;1.80;;;;;;;;;;5042181;28;20193;-82
2022/04/12 01:34:26;;;;;;;2.22;2.03;;;;;;;;;;5044015;28;20197;-82
2022/04/12 01:36:52;;;;;;;3.20;2.08;;;;;;;;;;5041030;28;20217;-82
2022/04/12 01:39:18;;;;;;;5.47;2.23;;;;;;;;;;5041745;28;20190;-82
2022/04/12 01:41:44;;;;;;;3.65;1.90;;;;;;;;;;5041516;28;20436;-82
2022/04/12 01:44:10;;;;;;;3.57;2.10;;;;;;;;;;5039528;28;20207;-82
2022/04/12 01:46:36;;;;;;;2.60;2.30;;;;;;;;;;5044686;28;20435;-82
2022/04/12 01:49:02;;;;;;;2.43;2.23;;;;;;;;;;5041645;28;20280;-82
2022/04/12 01:51:28;;;;;;;6.47;2.30;;;;;;;;;;5053087;28;20452;-83
2022/04/12 01:53:54;;;;;;;3.88;2.50;;;;;;;;;;5056131;28;20467;-82
2022/04/12 01:56:20;;;;;;;2.75;1.98;;;;;;;;;;5040550;28;20179;-81
2022/04/12 01:58:46;;;;;;;5.03;2.63;;;;;;;;;;5043386;28;20177;-81
2022/04/12 02:01:12;;;;;;;1.93;1.80;;;;;;;;;;5029407;28;20174;-82
2022/04/12 02:03:38;;;;;;;2.23;1.97;;;;;;;;;;5035368;28;20436;-82
2022/04/12 02:06:05;;;;;;;2.22;2.03;;;;;;;;;;5056094;28;20444;-82
2022/04/12 02:08:31;;;;;;;2.45;1.38;;;;;;;;;;5040812;28;20184;-82
2022/04/12 02:10:58;;;;;;;2.00;1.77;;;;;;;;;;5058025;28;20181;-82
2022/04/12 02:13:24;;;;;;;2.78;2.03;;;;;;;;;;5058233;28;20515;-82
2022/04/12 02:15:50;;;;;;;4.10;2.27;;;;;;;;;;5040630;28;20190;-81
2022/04/12 02:18:16;;;;;;;2.80;1.90;;;;;;;;;;5040566;28;21004;-82
2022/04/12 02:20:42;;;;;;;3.20;1.90;;;;;;;;;;5041257;28;20443;-81
2022/04/12 02:23:08;;;;;;;4.43;2.20;;;;;;;;;;5041211;28;20441;-82
2022/04/12 02:25:34;;;;;;;2.23;1.63;;;;;;;;;;5044311;28;20435;-82
2022/04/12 02:28:00;;;;;;;2.28;2.08;;;;;;;;;;5041103;28;20440;-82
2022/04/12 02:30:26;;;;;;;2.15;1.77;;;;;;;;;;5040872;28;20192;-83
2022/04/12 02:32:52;;;;;;;4.13;1.98;;;;;;;;;;5056182;28;20189;-83
2022/04/12 02:35:18;;;;;;;2.43;2.23;;;;;;;;;;5040633;28;20213;-83
2022/04/12 02:37:43;;;;;;;2.42;1.95;;;;;;;;;;5044550;28;20802;-83
2022/04/12 02:40:10;;;;;;;2.43;1.80;;;;;;;;;;5041988;28;20178;-83
2022/04/12 02:42:36;;;;;;;2.20;2.00;;;;;;;;;;5039658;28;20718;-82
2022/04/12 02:45:02;;;;;;;3.20;1.93;;;;;;;;;;5055562;28;20193;-82
2022/04/12 02:47:28;;;;;;;2.03;1.83;;;;;;;;;;5040504;28;20434;-82
2022/04/12 02:49:54;;;;;;;2.30;2.10;;;;;;;;;;5043317;28;20166;-82
2022/04/12 02:52:20;;;;;;;3.22;1.90;;;;;;;;;;5041832;28;20203;-83
2022/04/12 02:54:46;;;;;;;5.80;1.95;;;;;;;;;;5040216;28;20284;-82
2022/04/12 02:57:12;;;;;;;3.53;2.40;;;;;;;;;;5039581;28;20188;-82
2022/04/12 02:59:38;;;;;;;1.70;1.60;;;;;;;;;;5055165;28;20340;-82
2022/04/12 03:02:05;;;;;;;2.10;1.90;;;;;;;;;;5024596;28;20186;-82
2022/04/12 03:04:31;;;;;;;3.70;1.75;;;;;;;;;;5043070;28;20253;-82
2022/04/12 03:06:57;;;;;;;2.10;1.63;;;;;;;;;;5038525;28;20189;-82
2022/04/12 03:09:23;;;;;;;2.38;2.15;;;;;;;;;;5058041;28;20436;-81
2022/04/12 03:11:49;;;;;;;2.40;1.80;;;;;;;;;;5059404;28;20276;-82
2022/04/12 03:14:15;;;;;;;2.13;1.88;;;;;;;;;;5035472;28;20214;-82
2022/04/12 03:16:42;;;;;;;3.57;1.80;;;;;;;;;;5047084;28;20181;-82
2022/04/12 03:19:08;;;;;;;2.60;1.90;;;;;;;;;;5045261;28;20404;-82
2022/04/12 03:21:34;;;;;;;5.07;1.80;;;;;;;;;;5045879;28;20193;-82
2022/04/12 03:24:00;;;;;;;2.25;1.60;;;;;;;;;;5058497;28;20185;-81
2022/04/12 03:26:26;;;;;;;3.20;1.80;;;;;;;;;;5043920;28;20201;-81
2022/04/12 03:28:52;;;;;;;4.97;2.05;;;;;;;;;;5045920;28;20524;-82
2022/04/12 03:31:18;;;;;;;2.78;1.83;;;;;;;;;;5045070;28;20425;-83
2022/04/12 03:33:46;;;;;;;2.88;1.73;;;;;;;;;;5042095;28;20300;-83
2022/04/12 03:36:12;;;;;;;1.90;1.60;;;;;;;;;;5058470;28;20190;-83
2022/04/12 03:38:47;;;;;;;4.15;2.00;;;;;;;;;;5058925;28;20182;-82
2022/04/12 03:41:13;;;;;;;5.32;2.40;;;;;;;;;;5043865;28;20236;-81
2022/04/12 03:43:39;;;;;;;3.30;2.30;;;;;;;;;;5061975;28;20189;-82
2022/04/12 03:46:05;;;;;;;3.20;1.97;;;;;;;;;;5059452;28;20173;-83
2022/04/12 03:48:31;;;;;;;1.80;1.63;;;;;;;;;;5055788;28;20440;-81
2022/04/12 03:50:57;;;;;;;2.70;1.87;;;;;;;;;;5043615;28;20196;-82
2022/04/12 03:53:23;;;;;;;7.80;2.08;;;;;;;;;;5043491;28;20437;-82
2022/04/12 03:55:50;;;;;;;2.50;2.17;;;;;;;;;;5060779;28;20173;-82
2022/04/12 03:58:19;;;;;;;4.22;1.95;;;;;;;;;;5053638;28;20782;-82
2022/04/12 04:00:45;;;;;;;3.92;1.85;;;;;;;;;;5056614;28;20181;-82
2022/04/12 04:03:11;;;;;;;2.15;1.95;;;;;;;;;;5054480;28;20281;-82
2022/04/12 04:05:37;;;;;;;2.15;1.50;;;;;;;;;;5030894;28;20177;-82
2022/04/12 04:08:03;;;;;;;3.13;1.95;;;;;;;;;;5058879;28;20198;-82
2022/04/12 04:10:29;;;;;;;2.25;2.05;;;;;;;;;;5061167;28;20207;-83
2022/04/12 04:12:55;;;;;;;7.57;1.98;;;;;;;;;;5043054;28;20186;-82
2022/04/12 04:15:22;;;;;;;5.17;1.77;;;;;;;;;;5042764;28;20221;-82
2022/04/12 04:17:48;;;;;;;2.78;2.00;;;;;;;;;;5058248;28;20424;-82
2022/04/12 04:20:15;;;;;;;3.08;2.08;;;;;;;;;;5013891;28;20274;-82
2022/04/12 04:22:42;;;;;;;4.50;2.13;;;;;;;;;;5041370;28;20188;-82
2022/04/12 04:25:09;;;;;;;2.35;2.15;;;;;;;;;;5040313;28;20656;-82
2022/04/12 04:27:35;;;;;;;5.20;2.47;;;;;;;;;;5057912;28;20182;-83
2022/04/12 04:30:03;;;;;;;3.83;1.85;;;;;;;;;;5058026;28;20204;-82
2022/04/12 04:32:29;;;;;;;2.35;2.03;;;;;;;;;;5042865;28;20252;-82
2022/04/12 04:34:55;;;;;;;2.27;2.07;;;;;;;;;;5059402;28;20206;-82
2022/04/12 04:37:21;;;;;;;2.42;2.17;;;;;;;;;;5058601;28;20437;-81
2022/04/12 04:39:47;;;;;;;3.60;2.50;;;;;;;;;;5058239;28;20201;-82
2022/04/12 04:42:13;;;;;;;2.03;1.73;;;;;;;;;;5057350;28;20491;-82
2022/04/12 04:44:39;;;;;;;4.85;2.00;;;;;;;;;;5043141;28;20917;-82
2022/04/12 04:47:05;;;;;;;3.45;2.40;;;;;;;;;;5043270;28;20190;-82
2022/04/12 04:49:31;;;;;;;4.28;2.05;;;;;;;;;;5060548;28;20667;-82
2022/04/12 04:51:57;;;;;;;2.20;1.93;;;;;;;;;;5048375;28;20219;-82
2022/04/12 04:54:23;;;;;;;3.03;1.93;;;;;;;;;;5051622;28;20465;-82
2022/04/12 04:56:49;;;;;;;2.42;2.15;;;;;;;;;;5059746;28;20440;-82
2022/04/12 04:59:15;;;;;;;3.08;1.92;;;;;;;;;;5057501;28;20527;-82
2022/04/12 05:01:41;;;;;;;3.43;1.93;;;;;;;;;;5045444;28;20197;-82
2022/04/12 05:04:07;;;;;;;2.20;2.00;;;;;;;;;;5057533;28;20424;-82
2022/04/12 05:06:33;;;;;;;3.70;2.13;;;;;;;;;;5041328;28;20575;-82
2022/04/12 05:08:59;;;;;;;3.07;2.57;;;;;;;;;;5041200;28;20440;-81
2022/04/12 05:11:25;;;;;;;2.60;2.40;;;;;;;;;;5042576;28;20484;-82
2022/04/12 05:13:51;;;;;;;4.60;2.67;;;;;;;;;;5043923;28;20975;-82
2022/04/12 05:16:17;;;;;;;4.50;2.30;;;;;;;;;;5045194;28;20429;-82
2022/04/12 05:18:43;;;;;;;3.07;2.03;;;;;;;;;;5038830;28;20189;-81
2022/04/12 05:21:09;;;;;;;3.60;2.10;;;;;;;;;;5056515;28;20464;-81
2022/04/12 05:23:35;;;;;;;3.92;2.60;;;;;;;;;;5041222;28;20659;-82
2022/04/12 05:26:01;;;;;;;2.70;2.20;;;;;;;;;;5042997;28;20182;-82
2022/04/12 05:28:27;;;;;;;7.20;2.38;;;;;;;;;;5059388;28;20413;-82
2022/04/12 05:30:53;;;;;;;3.35;2.08;;;;;;;;;;5049277;28;20229;-82
2022/04/12 05:33:19;;;;;;;6.68;2.60;;;;;;;;;;5036004;28;20185;-82
2022/04/12 05:35:45;;;;;;;5.57;1.80;;;;;;;;;;5040083;28;20189;-82
2022/04/12 05:38:11;;;;;;;4.50;2.20;;;;;;;;;;5041023;28;20208;-82
2022/04/12 05:40:37;;;;;;;2.43;2.23;;;;;;;;;;5045061;28;20182;-82
2022/04/12 05:43:03;;;;;;;2.55;2.28;;;;;;;;;;5041558;28;20435;-81
2022/04/12 05:45:29;;;;;;;2.17;1.98;;;;;;;;;;5042040;28;20197;-82
2022/04/12 05:47:56;;;;;;;3.17;2.25;;;;;;;;;;5041110;28;20185;-82
2022/04/12 05:50:23;;;;;;;2.47;2.28;;;;;;;;;;5056252;28;20205;-82
2022/04/12 05:52:49;;;;;;;2.80;2.55;;;;;;;;;;5058140;28;20244;-82
2022/04/12 05:55:17;;;;;;;3.80;3.50;;;;;;;;;;5057222;28;20201;-82
2022/04/12 05:57:52;;;;;;;5.03;3.20;;;;;;;;;;5040275;28;20546;-82
2022/04/12 06:00:19;;;;;;;4.20;2.83;;;;;;;;;;5055427;28;20185;-82
2022/04/12 06:02:46;;;;;;;8.50;2.63;;;;;;;;;;5052915;28;20181;-81
2022/04/12 06:05:13;;;;;;;4.53;2.58;;;;;;;;;;5040583;28;20194;-82
2022/04/12 06:07:39;;;;;;;2.65;2.33;;;;;;;;;;5043534;28;20185;-81
2022/04/12 06:10:05;;;;;;;2.80;1.95;;;;;;;;;;5040755;28;20177;-82
2022/04/12 06:12:31;;;;;;;2.30;2.10;;;;;;;;;;5040616;28;20193;-82
2022/04/12 06:14:58;;;;;;;5.50;2.78;;;;;;;;;;5057798;28;20230;-81
2022/04/12 06:17:34;;;;;;;4.18;2.88;;;;;;;;;;5041566;28;20189;-82
2022/04/12 06:20:04;;;;;;;2.60;2.15;;;;;;;;;;5041494;28;20190;-82
2022/04/12 06:22:30;;;;;;;4.95;2.40;;;;;;;;;;5058083;28;20174;-82
2022/04/12 06:24:56;;;;;;;4.90;2.33;;;;;;;;;;5041210;28;20197;-83
2022/04/12 06:27:36;;;;;;;4.20;2.75;;;;;;;;;;5042064;28;20503;-82
2022/04/12 06:30:06;;;;;;;3.13;2.10;;;;;;;;;;5033788;28;20183;-82
2022/04/12 06:32:33;;;;;;;2.65;1.90;;;;;;;;;;5040566;28;20182;-84
2022/04/12 06:34:58;;;;;;;2.53;2.15;;;;;;;;;;5041822;28;20201;-84
2022/04/12 06:37:26;;;;;;;7.32;2.63;;;;;;;;;;5042113;28;20181;-84
2022/04/12 06:39:52;;;;;;;2.17;1.70;;;;;;;;;;5040268;28;20208;-81
2022/04/12 06:42:18;;;;;;;2.92;1.95;;;;;;;;;;5055773;28;20189;-83
2022/04/12 06:44:44;;;;;;;4.00;2.15;;;;;;;;;;5043088;28;20212;-84
2022/04/12 06:47:10;;;;;;;3.57;2.53;;;;;;;;;;5060490;28;20185;-83
2022/04/12 06:49:36;;;;;;;2.97;2.20;;;;;;;;;;5049631;28;20431;-85
2022/04/12 06:52:02;;;;;;;2.20;2.00;;;;;;;;;;5042808;28;20186;-85
2022/04/12 06:54:28;;;;;;;4.50;2.90;;;;;;;;;;5053187;28;20476;-80
2022/04/12 06:56:54;;;;;;;3.03;2.70;;;;;;;;;;5043727;28;20285;-85
2022/04/12 06:59:20;;;;;;;2.87;1.60;;;;;;;;;;5059273;28;20178;-87
2022/04/12 07:01:46;;;;;;;5.28;1.55;;;;;;;;;;5046781;28;20937;-91
2022/04/12 07:04:12;;;;;;;2.58;2.15;;;;;;;;;;5060955;28;20204;-88
2022/04/12 07:06:38;;;;;;;2.20;1.40;;;;;;;;;;5060380;28;20276;-90
2022/04/12 07:09:05;;;;;;;2.10;1.90;;;;;;;;;;5043310;28;20436;-90
2022/04/12 07:11:31;;;;;;;3.17;1.50;;;;;;;;;;5043843;28;20578;-90
2022/04/12 07:13:57;;;;;;;2.33;2.13;;;;;;;;;;5044578;28;20232;-87
2022/04/12 07:16:23;;;;;;;1.73;1.43;;;;;;;;;;5061875;28;20177;-88
2022/04/12 07:18:49;;;;;;;2.28;1.25;;;;;;;;;;5040676;28;20530;-90
2022/04/12 07:21:21;;;;;;;3.67;2.47;;;;;;;;;;5040856;28;20597;-88
2022/04/12 07:23:49;;;;;;;2.60;2.40;;;;;;;;;;5035650;28;20494;-89
2022/04/12 07:26:15;;;;;;;2.55;1.50;;;;;;;;;;5043653;28;20198;-89
2022/04/12 07:28:41;;;;;;;1.70;1.40;;;;;;;;;;5063374;28;20236;-88
2022/04/12 07:31:07;;;;;;;2.95;1.70;;;;;;;;;;5065373;28;20193;-90
2022/04/12 07:33:33;;;;;;;2.80;1.45;;;;;;;;;;5059041;28;20738;-90
2022/04/12 07:35:59;;;;;;;1.63;1.40;;;;;;;;;;5044501;28;20190;-90
2022/04/12 07:38:25;;;;;;;3.27;1.40;;;;;;;;;;5042257;28;20478;-87
2022/04/12 07:40:53;;;;;;;1.67;1.57;;;;;;;;;;5044054;28;20404;-86
2022/04/12 07:43:20;;;;;;;4.78;1.55;;;;;;;;;;5060392;28;20418;-87
2022/04/12 07:45:46;;;;;;;2.95;2.35;;;;;;;;;;5043428;28;20197;-86
2022/04/12 07:48:12;;;;;;;2.63;1.50;;;;;;;;;;5043528;28;20185;-87
2022/04/12 07:50:39;;;;;;;3.72;1.50;;;;;;;;;;5039865;28;20178;-89
2022/04/12 07:53:05;;;;;;;2.42;1.50;;;;;;;;;;5042334;28;20191;-88
2022/04/12 07:55:31;;;;;;;1.65;1.50;;;;;;;;;;5046587;28;20212;-87
2022/04/12 07:57:57;;;;;;;2.30;1.48;;;;;;;;;;5043921;28;20205;-88
2022/04/12 08:00:23;;;;;;;1.65;1.52;;;;;;;;;;5045237;28;20185;-86
2022/04/12 08:02:49;;;;;;;6.57;1.48;;;;;;;;;;5058456;28;20182;-86
2022/04/12 08:05:15;;;;;;;3.50;2.42;;;;;;;;;;5049650;28;20205;-86
2022/04/12 08:07:47;;;;;;;2.42;1.92;;;;;;;;;;5060915;28;20185;-87
2022/04/12 08:10:14;;;;;;;2.60;1.40;;;;;;;;;;5061649;28;20206;-87
2022/04/12 08:12:40;;;;;;;2.67;1.60;;;;;;;;;;5058424;28;20236;-87
2022/04/12 08:15:06;;;;;;;2.20;1.43;;;;;;;;;;5036173;28;20222;-88
2022/04/12 08:17:32;;;;;;;1.88;1.20;;;;;;;;;;5042791;28;20488;-85
2022/04/12 08:19:59;;;;;;;2.47;1.70;;;;;;;;;;5044902;28;20177;-87
2022/04/12 08:22:25;;;;;;;3.92;1.70;;;;;;;;;;5049661;28;20502;-88
2022/04/12 08:24:51;;;;;;;2.90;1.60;;;;;;;;;;5043144;28;20187;-88
2022/04/12 08:27:17;;;;;;;4.18;1.70;;;;;;;;;;5035906;28;20529;-88
2022/04/12 08:29:43;;;;;;;2.63;1.42;;;;;;;;;;5037473;28;20294;-86
2022/04/12 08:32:12;;;;;;;6.20;1.80;;;;;;;;;;5050360;28;20199;-88
2022/04/12 08:34:38;;;;;;;4.00;1.35;;;;;;;;;;5053050;28;20478;-82
2022/04/12 08:37:07;;;;;;;2.95;1.20;;;;;;;;;;5025551;28;20177;-87
2022/04/12 08:39:33;;;;;;;2.70;1.55;;;;;;;;;;5041817;28;20188;-83
2022/04/12 08:42:01;;;;;;;3.95;1.70;;;;;;;;;;5042529;28;20185;-85
2022/04/12 08:44:27;;;;;;;2.10;1.20;;;;;;;;;;5044574;28;20201;-85
2022/04/12 08:46:56;;;;;;;3.90;1.60;;;;;;;;;;5051892;28;20185;-87
2022/04/12 08:49:23;;;;;;;2.20;1.50;;;;;;;;;;5043447;28;20182;-86
2022/04/12 08:51:49;;;;;;;3.17;1.33;;;;;;;;;;5040457;28;20768;-84
2022/04/12 08:54:17;;;;;;;6.13;1.42;;;;;;;;;;5041887;28;20209;-87
2022/04/12 08:56:45;;;;;;;9.40;2.38;;;;;;;;;;5041886;28;20186;-86
2022/04/12 08:59:11;;;;;;;3.13;1.42;;;;;;;;;;5026253;28;20259;-87
2022/04/12 09:01:38;;;;;;;3.92;1.52;;;;;;;;;;5060134;28;20546;-87
2022/04/12 09:04:04;;;;;;;6.43;1.50;;;;;;;;;;5041126;28;20193;-86
2022/04/12 09:06:30;;;;;;;2.88;1.55;;;;;;;;;;5039674;28;20268;-83
2022/04/12 09:09:09;;;;;;;1.35;1.10;;;;;;;;;;5041419;28;20184;-88
2022/04/12 09:11:35;;;;;;;2.85;1.23;;;;;;;;;;5041131;28;20236;-87
2022/04/12 09:14:01;;;;;;;9.73;2.20;;;;;;;;;;5057855;28;20287;-84
2022/04/12 09:16:28;;;;;;;3.67;1.98;;;;;;;;;;5044475;28;20417;-89
2022/04/12 09:18:55;;;;;;;4.95;1.20;;;;;;;;;;5041813;28;20189;-87
2022/04/12 09:21:22;;;;;;;3.08;1.50;;;;;;;;;;5041225;28;20185;-84
2022/04/12 09:23:50;;;;;;;2.85;1.25;;;;;;;;;;5041272;28;20184;-87
2022/04/12 09:26:17;;;;;;;8.27;1.95;;;;;;;;;;5040162;28;20182;-88
2022/04/12 09:28:44;;;;;;;5.35;1.55;;;;;;;;;;5060020;28;20535;-86
2022/04/12 09:31:11;;;;;;;2.88;1.30;;;;;;;;;;5057057;28;20181;-82
2022/04/12 09:33:37;;;;;;;3.03;1.55;;;;;;;;;;5056463;28;20192;-92
2022/04/12 09:36:04;;;;;;;2.75;1.40;;;;;;;;;;5041324;28;20190;-88
2022/04/12 09:38:31;;;;;;;3.63;1.65;;;;;;;;;;5056831;28;20210;-87
2022/04/12 09:41:17;;;;;;;3.05;1.58;;;;;;;;;;5043063;28;20193;-86
2022/04/12 09:44:05;;;;;;;5.50;1.88;;;;;;;;;;5055760;28;20303;-87
2022/04/12 09:46:31;;;;;;;4.22;2.00;;;;;;;;;;5059726;28;20178;-88
2022/04/12 09:48:57;;;;;;;1.80;1.58;;;;;;;;;;5040869;28;20232;-88
2022/04/12 09:51:24;;;;;;;2.57;1.30;;;;;;;;;;5040522;28;20205;-90
2022/04/12 09:53:50;;;;;;;6.10;1.42;;;;;;;;;;5056132;28;20475;-86
2022/04/12 09:56:21;;;;;;;3.85;1.48;;;;;;;;;;5056682;28;20273;-86
2022/04/12 09:58:48;;;;;;;4.35;1.95;;;;;;;;;;5025425;28;20174;-88
2022/04/12 10:01:15;;;;;;;3.55;1.45;;;;;;;;;;5043921;28;20173;-90
2022/04/12 10:03:43;;;;;;;5.28;2.30;;;;;;;;;;5055661;28;20196;-92
2022/04/12 10:06:10;;;;;;;3.33;1.85;;;;;;;;;;5056046;28;20200;-87
2022/04/12 10:08:36;;;;;;;6.45;1.70;;;;;;;;;;5041474;28;20647;-90
2022/04/12 10:11:03;;;;;;;5.35;1.40;;;;;;;;;;5057167;28;20201;-85
2022/04/12 10:13:30;;;;;;;2.10;1.50;;;;;;;;;;5043065;28;20285;-86
2022/04/12 10:15:56;;;;;;;3.22;2.00;;;;;;;;;;5041359;28;20205;-90
2022/04/12 10:18:22;;;;;;;6.07;1.95;;;;;;;;;;5040283;28;20182;-88
2022/04/12 10:20:48;;;;;;;4.60;1.60;;;;;;;;;;5039496;28;20178;-89
2022/04/12 10:23:19;;;;;;;3.05;1.33;;;;;;;;;;5024006;28;20455;-88
2022/04/12 10:25:50;;;;;;;5.72;2.00;;;;;;;;;;5058748;28;20197;-88
2022/04/12 10:28:16;;;;;;;3.70;1.50;;;;;;;;;;5043613;28;20202;-88
2022/04/12 10:30:42;;;;;;;4.07;1.00;;;;;;;;;;5040886;28;20191;-87
2022/04/12 10:33:09;;;;;;;4.93;2.25;;;;;;;;;;5040548;28;20181;-86
2022/04/12 10:35:45;;;;;;;2.80;1.50;;;;;;;;;;5039386;28;20210;-87
2022/04/12 10:38:11;;;;;;;4.47;1.83;;;;;;;;;;5007331;28;20186;-89
2022/04/12 10:40:42;;;;;;;2.65;1.50;;;;;;;;;;5056227;28;20636;-88
2022/04/12 10:43:10;;;;;;;5.82;1.90;;;;;;;;;;5024604;28;20170;-86
2022/04/12 10:45:37;;;;;;;2.50;1.75;;;;;;;;;;5042432;28;20241;-89
2022/04/12 10:48:04;;;;;;;6.85;1.85;;;;;;;;;;5040727;28;20587;-90
2022/04/12 10:50:50;;;;;;;4.60;1.60;;;;;;;;;;5021497;28;20212;-83
2022/04/12 10:53:36;;;;;;;4.57;1.75;;;;;;;;;;5007331;28;20188;-86
2022/04/12 10:56:03;;;;;;;3.90;1.25;;;;;;;;;;5040778;28;20187;-88
2022/04/12 10:58:30;;;;;;;1.77;1.30;;;;;;;;;;5041742;28;20177;-87
2022/04/12 11:00:59;;;;;;;4.47;2.00;;;;;;;;;;5022128;28;20256;-89
2022/04/12 11:03:58;;;;;;;3.95;1.35;;;;;;;;;;5063293;28;20333;-92
2022/04/12 11:06:24;;;;;;;5.70;1.70;;;;;;;;;;4943372;29;20200;-81
2022/04/12 11:08:51;;;;;;;7.13;2.10;;;;;;;;;;4936189;29;20460;-87
2022/04/12 11:11:18;;;;;;;2.55;1.60;;;;;;;;;;4943395;29;20941;-86
2022/04/12 11:13:44;;;;;;;4.82;1.70;;;;;;;;;;4942918;29;20578;-86
2022/04/12 11:16:11;;;;;;;3.90;1.80;;;;;;;;;;4943710;29;20181;-89
2022/04/12 11:18:47;;;;;;;4.85;1.83;;;;;;;;;;4942990;29;20229;-88
2022/04/12 11:21:14;;;;;;;4.10;1.83;;;;;;;;;;4942645;29;20200;-85
2022/04/12 11:23:49;;;;;;;9.95;2.10;;;;;;;;;;4942385;29;20455;-89
2022/04/12 11:26:27;;;;;;;5.50;2.10;;;;;;;;;;4942230;29;20697;-89
2022/04/12 11:28:56;;;;;;;3.33;1.30;;;;;;;;;;4943304;29;20435;-87
2022/04/12 11:31:22;;;;;;;5.82;2.10;;;;;;;;;;4947588;29;20432;-83
2022/04/12 11:33:49;;;;;;;3.00;1.37;;;;;;;;;;4943604;29;20282;-86
2022/04/12 11:36:19;;;;;;;4.87;1.93;;;;;;;;;;4945847;29;20453;-88
2022/04/12 11:38:45;;;;;;;2.33;1.47;;;;;;;;;;4946180;29;20423;-87
2022/04/12 11:41:11;;;;;;;2.30;1.50;;;;;;;;;;4959703;28;20437;-90
2022/04/12 11:43:37;;;;;;;3.77;1.37;;;;;;;;;;5033718;28;20423;-89
2022/04/12 11:46:03;;;;;;;2.00;1.33;;;;;;;;;;5042705;28;20723;-88
2022/04/12 11:48:30;;;;;;;4.50;1.60;;;;;;;;;;5044984;28;20440;-86
2022/04/12 11:50:57;;;;;;;3.07;1.30;;;;;;;;;;5042693;28;20476;-84
2022/04/12 11:53:24;;;;;;;2.83;1.50;;;;;;;;;;5042373;28;20806;-86
2022/04/12 11:55:50;;;;;;;1.80;1.50;;;;;;;;;;5044305;28;20782;-86
2022/04/12 11:58:19;;;;;;;3.63;1.20;;;;;;;;;;5043776;28;20453;-86
2022/04/12 12:00:46;;;;;;;3.80;1.80;;;;;;;;;;5038039;28;20433;-88
2022/04/12 12:03:16;;;;;;;7.50;2.13;;;;;;;;;;5058141;28;20443;-82
2022/04/12 12:05:42;;;;;;;6.50;2.20;;;;;;;;;;5042133;28;20558;-87
2022/04/12 12:08:10;;;;;;;8.53;2.80;;;;;;;;;;5042442;28;20459;-87
2022/04/12 12:10:36;;;;;;;2.90;1.80;;;;;;;;;;5076653;28;20440;-89
2022/04/12 12:13:05;;;;;;;3.53;1.67;;;;;;;;;;5042258;28;20477;-84
2022/04/12 12:15:33;;;;;;;7.30;2.23;;;;;;;;;;5044095;28;20469;-87
2022/04/12 12:18:00;;;;;;;3.73;1.77;;;;;;;;;;5058236;28;20424;-88
2022/04/12 12:20:27;;;;;;;7.03;1.90;;;;;;;;;;5042347;28;20433;-84
2022/04/12 12:22:55;;;;;;;5.10;3.17;;;;;;;;;;5043827;28;20928;-84
2022/04/12 12:25:36;;;;;;;5.40;2.30;;;;;;;;;;5042392;28;20442;-78
2022/04/12 12:28:01;;;;;;;3.50;1.47;;;;;;;;;;5024806;28;20457;-83
2022/04/12 12:30:29;;;;;;;8.03;1.80;;;;;;;;;;5043917;28;20436;-86
2022/04/12 12:32:57;;;;;;;3.10;1.50;;;;;;;;;;5041184;28;20526;-85
2022/04/12 12:35:27;;;;;;;4.07;1.50;;;;;;;;;;5040971;28;20469;-85
2022/04/12 12:38:01;;;;;;;3.53;2.17;;;;;;;;;;5059301;28;20398;-85
2022/04/12 12:40:27;;;;;;;7.57;2.27;;;;;;;;;;5044713;28;20390;-90
2022/04/12 12:42:55;;;;;;;2.67;1.50;;;;;;;;;;5040735;28;20439;-86
2022/04/12 12:45:22;;;;;;;4.00;1.60;;;;;;;;;;5042022;28;20509;-84
2022/04/12 12:47:56;;;;;;;2.53;1.67;;;;;;;;;;5041886;28;20435;-87
2022/04/12 12:50:23;;;;;;;3.00;1.60;;;;;;;;;;5043696;28;20406;-86
2022/04/12 12:52:49;;;;;;;11.93;3.00;;;;;;;;;;5059050;28;20430;-81
2022/04/12 12:55:19;;;;;;;4.13;1.50;;;;;;;;;;5042819;28;20444;-84
2022/04/12 12:57:46;;;;;;;2.03;1.20;;;;;;;;;;5041789;28;20495;-89
2022/04/12 13:00:13;;;;;;;6.13;1.60;;;;;;;;;;5037833;28;20486;-90
2022/04/12 13:02:40;;;;;;;4.23;1.70;;;;;;;;;;5042243;28;20448;-85
2022/04/12 13:05:10;;;;;;;1.77;1.60;;;;;;;;;;5047343;28;20440;-84
2022/04/12 13:07:37;;;;;;;4.27;1.70;;;;;;;;;;5031910;28;20425;-86
2022/04/12 13:10:06;;;;;;;3.03;1.70;;;;;;;;;;5041473;28;20414;-87
2022/04/12 13:12:32;;;;;;;2.67;1.50;;;;;;;;;;5041191;28;20478;-85
2022/04/12 13:14:58;;;;;;;5.27;2.00;;;;;;;;;;5039774;28;20457;-85
2022/04/12 13:17:24;;;;;;;3.30;2.00;;;;;;;;;;5048479;28;20428;-82
2022/04/12 13:19:50;;;;;;;3.77;1.57;;;;;;;;;;5038814;28;20900;-85
2022/04/12 13:22:18;;;;;;;5.43;1.60;;;;;;;;;;5034584;28;20510;-85
2022/04/12 13:24:44;;;;;;;4.03;1.50;;;;;;;;;;5029661;28;20456;-80
2022/04/12 13:27:10;;;;;;;4.80;1.40;;;;;;;;;;5031923;28;20463;-83
2022/04/12 13:29:36;;;;;;;3.10;1.40;;;;;;;;;;5021466;28;20415;-83
2022/04/12 13:32:02;;;;;;;7.63;1.90;;;;;;;;;;5035414;28;20477;-89
2022/04/12 13:34:28;;;;;;;4.30;1.57;;;;;;;;;;5043860;28;20464;-84
2022/04/12 13:36:54;;;;;;;3.70;1.80;;;;;;;;;;5022924;28;20418;-83
2022/04/12 13:39:20;;;;;;;3.90;1.57;;;;;;;;;;5055249;28;20441;-86
2022/04/12 13:41:47;;;;;;;4.67;1.90;;;;;;;;;;5038961;28;20426;-82
2022/04/12 13:44:13;;;;;;;3.10;1.33;;;;;;;;;;5041357;28;20419;-81
2022/04/12 13:46:39;;;;;;;3.50;1.27;;;;;;;;;;5051015;28;20444;-81
2022/04/12 13:49:06;;;;;;;5.03;1.53;;;;;;;;;;5039583;28;20413;-82
2022/04/12 13:51:32;;;;;;;6.23;1.53;;;;;;;;;;5039324;28;20444;-81
2022/04/12 13:53:58;;;;;;;4.30;1.70;;;;;;;;;;5041940;28;20551;-77
2022/04/12 13:56:24;;;;;;;2.57;1.77;;;;;;;;;;5041129;28;20428;-84
2022/04/12 13:58:54;;;;;;;4.60;1.50;;;;;;;;;;5065073;28;20417;-80
2022/04/12 14:01:20;;;;;;;3.63;1.53;;;;;;;;;;5027344;28;20399;-83
2022/04/12 14:03:47;;;;;;;5.93;1.90;;;;;;;;;;5039873;28;20496;-81
2022/04/12 14:06:13;;;;;;;3.00;1.43;;;;;;;;;;5038495;28;20989;-83
2022/04/12 14:08:41;;;;;;;5.47;1.80;;;;;;;;;;5041033;28;20468;-81
2022/04/12 14:11:07;;;;;;;4.20;1.70;;;;;;;;;;5041367;28;20433;-81
2022/04/12 14:13:36;;;;;;;10.40;2.07;;;;;;;;;;5043233;28;20495;-82
2022/04/12 14:16:02;;;;;;;6.60;1.60;;;;;;;;;;5040383;28;20450;-82
2022/04/12 14:18:28;;;;;;;3.73;1.77;;;;;;;;;;5040880;28;20439;-81
2022/04/12 14:20:54;;;;;;;2.90;1.70;;;;;;;;;;5038813;28;20438;-81
2022/04/12 14:23:20;;;;;;;4.13;1.63;;;;;;;;;;5055234;28;20430;-80
2022/04/12 14:25:46;;;;;;;5.40;1.73;;;;;;;;;;5058416;28;20931;-83
2022/04/12 14:28:12;;;;;;;2.03;1.50;;;;;;;;;;5041607;28;20422;-82
2022/04/12 14:30:39;;;;;;;2.83;1.73;;;;;;;;;;5040384;28;20488;-84
2022/04/12 14:33:05;;;;;;;11.00;2.53;;;;;;;;;;5038828;28;20428;-82
2022/04/12 14:35:31;;;;;;;3.87;1.70;;;;;;;;;;5039602;28;20437;-82
2022/04/12 14:37:58;;;;;;;5.80;1.90;;;;;;;;;;5057315;28;20417;-81
2022/04/12 14:40:24;;;;;;;3.50;1.80;;;;;;;;;;5041064;28;20425;-79
2022/04/12 14:42:50;;;;;;;4.40;1.37;;;;;;;;;;5039094;28;20518;-81
2022/04/12 14:45:16;;;;;;;3.40;1.60;;;;;;;;;;5033677;28;20472;-81